Impacts METAR Board INFO
IDs:

KSEA - Seattle-Tacoma Intl, WA, US

Updated at: 1458 UTC 16 Dec 2017
Potential Impact None Slight Moderate High
Time16/02Z 16/03Z 16/04Z 16/05Z 16/06Z 16/07Z 16/08Z 16/09Z 16/10Z 16/11Z 16/12Z 16/13Z 16/14Z
VIS0.5 1.5 1.5 3 3 2 10 10 10 9 7 7 10
CIG2 24 22 26 6 3 10 170 12 60 140 140 --
CoverOVCOVCOVCBKNOVCOVCOVCOVCOVCOVCBKNBKNFEW
FltCatLIFRIFRIFRMVFRIFRLIFRMVFRVFRMVFRVFRVFRVFRVFR
WXBRBR-RA BRBRBRBR--------------
WDir180160180180160130130170170150130130130
WSpd5 4 4 4 5 8 7 6 4 4 4 5 5
WGst-- -- -- -- -- -- -- -- -- -- -- -- --
Raw hourly METARs
KSEA 160153Z 18005KT 1/2SM R16L/P6000FT BR OVC002 06/05 A3021 RMK AO2 SFC VIS 2 RAB12E36 SLP240 P0000 T00560050
KSEA 160259Z 16004KT 1 1/2SM BR SCT003 BKN024 OVC034 06/05 A3022 RMK AO2 SFC VIS 4 T00560050
KSEA 160353Z 18004KT 1 1/2SM -RA BR SCT006 OVC022 06/05 A3022 RMK AO2 SFC VIS 3 RAB45 SLP244 P0002 T00560050
KSEA 160453Z 18004KT 3SM BR SCT008 BKN026 06/05 A3024 RMK AO2 SFC VIS 6 RAE04 SLP250 P0003 T00560050 $
KSEA 160553Z 16005KT 3SM BR BKN006 OVC026 05/04 A3025 RMK AO2 SFC VIS 6 SLP251 60006 T00500044 10061 20044 51010 $
KSEA 160653Z 13008KT 2SM BR BKN003 OVC006 06/05 A3026 RMK AO2 SFC VIS 6 SLP256 T00560050 $
KSEA 160753Z 13007KT 10SM OVC010 06/04 A3026 RMK AO2 CIG 007V013 SLP257 T00560044 400610028 $
KSEA 160853Z 17006KT 10SM SCT014 OVC170 05/04 A3027 RMK AO2 SLP259 T00500039 51009 $
KSEA 160953Z 17004KT 10SM BKN012 OVC160 05/04 A3028 RMK AO2 SLP263 T00500039 $
KSEA 161053Z 15004KT 9SM SCT012 BKN060 OVC160 04/04 A3029 RMK AO2 SLP265 T00440039 $
KSEA 161153Z 13004KT 7SM BKN140 04/03 A3029 RMK AO2 SLP265 70006 T00390033 10056 20039 51005 $
KSEA 161253Z 13005KT 7SM BKN140 03/03 A3029 RMK AO2 SLP265 T00330028 $
KSEA 161353Z 13005KT 10SM FEW140 03/03 A3030 RMK AO2 SLP269 T00330028 $